LiveATC.Net - Listen to live air traffic control over the Internet!


ICAO: EHVL  IATA:   Airport: Vlieland Heliport
City: Vlieland
Country: Netherlands   Continent: Europe
EHVL METAR Weather: EHVL 171425Z AUTO 19007KT 9999 BKN100 M00/M02 Q1038 BLU
EHVL Flight Activity (FlightAware)
EHVL CTAF/Range Control
Feed Status: UP   Listeners: 0
Listen right in your browser - requires Flash (in browser, requires Flash)
Click here to listen with your own player (launches your MP3 player)
EHVL CTAF/Range Control Audio Archives
FacilityFrequency
Cornfield VHF (CTAF)122.100
Range Controller (Primary)279.000
Range Controller (Secondary)369.200
Range Controller VHF138.075


NOTICE

Unauthorized use prohibited. See LiveATC.net Terms of Service


Find LiveATC Audio Streams


Airport/ARTCC Code

Frequency
(e.g., 124.400, 128.75)
Site-wide search

Browse LiveATC Feeds
LiveATC Coverage Map
Top 50 LiveATC Feeds
Bad Weather Areas

LiveATC FAQ
Offer a LiveATC Feed
Contact LiveATC.net
Press Inquiries

LiveATC on iPhone
LiveATC on Android

Windows Phone
Windows 8/10

LiveATC Mobile
(Mobile browser)

ATC Audio Archives
Interesting Recordings

LiveATC Forums


Home Page
About LiveATC.net
Make a Donation
LiveATC Store

Terms of Use
Privacy Policy

Canadian Air Freqs

AIRMETs/SIGMETs

FAA Airport Status
Nat'l Airspace Status
Arrival Demand Charts


Server Software By:
Icecast.org
Liquidsoap